createdAt,value
2018-03-23T00:00:15.201Z,90.00
2018-03-23T00:02:44.413Z,90.10
2018-03-23T00:05:15.633Z,90.10
2018-03-23T00:07:43.469Z,90.10
2018-03-23T00:10:14.312Z,90.10
2018-03-23T00:15:36.387Z,90.50
2018-03-23T00:18:17.601Z,90.50
2018-03-23T00:20:45.110Z,90.50
2018-03-23T00:23:12.656Z,90.50
2018-03-23T00:25:43.200Z,90.50
2018-03-23T00:28:15.538Z,90.50
2018-03-23T00:30:45.300Z,90.50
2018-03-23T00:33:15.576Z,90.50
2018-03-23T00:35:47.893Z,90.80
2018-03-23T00:38:15.505Z,90.50
2018-03-23T00:40:46.146Z,90.50
2018-03-23T00:49:23.990Z,90.70
2018-03-23T00:54:51.126Z,90.50
2018-03-23T00:57:19.256Z,90.60
2018-03-23T00:59:51.167Z,90.70
2018-03-23T01:02:23.432Z,90.70
2018-03-23T01:04:55.376Z,90.70
2018-03-23T01:07:25.824Z,90.80
2018-03-23T01:09:56.890Z,90.70
2018-03-23T01:12:27.026Z,90.60
2018-03-23T01:14:54.810Z,90.60
2018-03-23T01:17:37.882Z,90.60
2018-03-23T01:20:09.744Z,90.70
2018-03-23T01:22:45.835Z,90.90
2018-03-23T01:25:15.069Z,91.10
2018-03-23T01:27:45.403Z,91.10
2018-03-23T01:30:14.565Z,91.10
2018-03-23T01:32:44.081Z,91.00
2018-03-23T01:35:14.471Z,90.90
2018-03-23T01:37:44.968Z,90.90
2018-03-23T01:40:16.156Z,90.90
2018-03-23T01:42:44.798Z,90.80
2018-03-23T01:45:14.945Z,90.90
2018-03-23T01:47:45.539Z,90.70
2018-03-23T01:50:14.512Z,90.60
2018-03-23T01:52:44.622Z,90.80
2018-03-23T01:55:12.141Z,90.40
2018-03-23T01:57:48.536Z,90.40
2018-03-23T02:00:16.278Z,90.40
2018-03-23T02:02:46.600Z,90.40
2018-03-23T02:05:14.849Z,90.40
2018-03-23T02:08:00.653Z,90.40
2018-03-23T02:10:43.445Z,90.50
2018-03-23T02:13:18.630Z,90.70
2018-03-23T02:21:32.059Z,90.50
2018-03-23T02:26:51.651Z,90.40
2018-03-23T02:32:13.746Z,90.50
2018-03-23T02:34:44.869Z,90.70
2018-03-23T02:37:14.450Z,90.60
2018-03-23T02:48:57.566Z,90.50
2018-03-23T02:51:28.484Z,90.40
2018-03-23T02:53:56.122Z,90.50
2018-03-23T02:56:30.978Z,90.60
2018-03-23T02:59:04.623Z,90.80
2018-03-23T03:01:34.097Z,90.80
2018-03-23T03:04:02.809Z,90.80
2018-03-23T03:06:30.493Z,90.80
2018-03-23T03:11:44.173Z,90.80
2018-03-23T03:17:10.462Z,91.10
2018-03-23T03:19:40.725Z,91.00
2018-03-23T03:22:12.777Z,91.00
2018-03-23T03:24:45.181Z,91.00
2018-03-23T03:27:15.295Z,91.00
2018-03-23T03:29:45.286Z,91.00
2018-03-23T03:32:15.593Z,91.00
2018-03-23T03:34:46.459Z,91.00
2018-03-23T03:37:15.504Z,91.10
2018-03-23T03:39:43.067Z,91.10
2018-03-23T03:42:13.820Z,91.10
2018-03-23T03:44:43.368Z,91.10
2018-03-23T03:47:13.569Z,91.10
2018-03-23T03:49:43.035Z,91.20
2018-03-23T03:52:13.491Z,91.10
2018-03-23T03:54:47.578Z,91.40
2018-03-23T03:57:15.125Z,91.40
2018-03-23T03:59:59.369Z,91.40
2018-03-23T04:02:26.997Z,91.50
2018-03-23T04:05:05.707Z,91.60
2018-03-23T04:07:38.996Z,91.50
2018-03-23T04:10:09.815Z,91.50
2018-03-23T04:12:49.265Z,91.40
2018-03-23T04:15:17.775Z,91.30
2018-03-23T04:17:46.139Z,91.40
2018-03-23T04:20:14.719Z,91.30
2018-03-23T04:22:52.209Z,91.20
2018-03-23T04:25:20.816Z,91.30
2018-03-23T04:27:48.446Z,91.30
2018-03-23T04:36:14.527Z,91.10
2018-03-23T04:38:44.497Z,91.10
2018-03-23T04:41:12.072Z,91.10
2018-03-23T04:43:46.357Z,91.00
2018-03-23T04:46:14.009Z,91.00
2018-03-23T04:48:41.736Z,91.10
2018-03-23T04:51:09.274Z,91.10
2018-03-23T04:53:37.541Z,91.00
2018-03-23T04:56:05.170Z,91.00
2018-03-23T04:58:32.714Z,91.10
2018-03-23T05:01:01.053Z,90.90
2018-03-23T05:03:28.612Z,90.90
2018-03-23T05:06:15.021Z,91.00
2018-03-23T05:08:46.853Z,91.00
2018-03-23T05:11:16.262Z,90.90
2018-03-23T05:13:44.672Z,90.90
2018-03-23T05:16:17.436Z,91.20
2018-03-23T05:18:45.436Z,90.90
2018-03-23T05:24:15.567Z,90.90
2018-03-23T05:26:47.180Z,90.90
2018-03-23T05:29:17.291Z,91.00
2018-03-23T05:31:46.042Z,91.00
2018-03-23T05:34:16.398Z,91.40
2018-03-23T05:36:47.069Z,91.00
2018-03-23T05:39:17.386Z,91.00
2018-03-23T05:41:45.648Z,91.00
2018-03-23T05:44:15.665Z,91.10
2018-03-23T05:58:26.732Z,91.00
2018-03-23T06:01:06.840Z,91.00
2018-03-23T06:03:36.150Z,91.00
2018-03-23T06:06:20.283Z,91.10
2018-03-23T06:12:07.424Z,91.10
2018-03-23T06:14:37.549Z,91.10
2018-03-23T06:17:37.069Z,91.10
2018-03-23T06:20:09.022Z,91.10
2018-03-23T06:22:38.048Z,91.00
2018-03-23T06:25:07.717Z,91.10
2018-03-23T06:27:37.858Z,91.00
2018-03-23T06:30:12.784Z,91.00
2018-03-23T06:32:40.325Z,91.00
2018-03-23T06:35:07.849Z,91.10
2018-03-23T06:37:39.045Z,91.00
2018-03-23T06:40:08.117Z,91.00
2018-03-23T06:42:38.333Z,91.10
2018-03-23T06:45:07.729Z,91.10
2018-03-23T06:47:38.732Z,91.10
2018-03-23T06:52:49.249Z,91.10
2018-03-23T06:55:25.243Z,91.10
2018-03-23T07:22:22.191Z,90.90
2018-03-23T07:24:52.932Z,90.80
2018-03-23T07:27:23.406Z,90.90
2018-03-23T07:29:52.392Z,90.90
2018-03-23T07:32:19.895Z,90.90
2018-03-23T07:34:49.028Z,91.00
2018-03-23T07:37:17.784Z,90.90
2018-03-23T07:39:45.347Z,90.90
2018-03-23T07:42:15.658Z,90.80
2018-03-23T07:47:36.225Z,90.80
2018-03-23T07:50:03.766Z,90.80
2018-03-23T07:52:31.581Z,90.90
2018-03-23T07:54:59.872Z,90.90
2018-03-23T07:57:28.129Z,90.80
2018-03-23T07:59:55.629Z,90.80
2018-03-23T08:02:36.913Z,91.10
2018-03-23T08:05:08.207Z,91.00
2018-03-23T08:07:39.058Z,91.10
2018-03-23T08:10:07.325Z,91.20
2018-03-23T08:12:35.615Z,91.10
2018-03-23T08:15:03.913Z,91.20
2018-03-23T08:17:40.200Z,91.20
2018-03-23T08:20:07.697Z,91.10
2018-03-23T08:22:35.233Z,91.00
2018-03-23T08:25:08.957Z,91.00
2018-03-23T08:27:37.494Z,91.20
2018-03-23T08:30:08.886Z,91.10
2018-03-23T08:32:40.775Z,91.20
2018-03-23T08:35:09.041Z,91.30
2018-03-23T08:37:37.658Z,91.20
2018-03-23T08:40:09.000Z,91.00
2018-03-23T08:42:37.351Z,91.00
2018-03-23T08:45:08.520Z,91.00
2018-03-23T08:47:36.044Z,91.00
2018-03-23T08:50:10.039Z,91.00
2018-03-23T08:52:37.871Z,91.00
2018-03-23T08:55:05.867Z,91.10
2018-03-23T08:57:33.369Z,91.00
2018-03-23T09:00:01.648Z,90.70
2018-03-23T09:02:43.595Z,90.70
2018-03-23T09:08:04.375Z,91.10
2018-03-23T09:10:43.308Z,91.30
2018-03-23T09:13:11.928Z,91.40
2018-03-23T09:15:39.460Z,90.90
2018-03-23T09:18:07.709Z,90.70
2018-03-23T09:20:40.346Z,90.50
2018-03-23T09:23:07.878Z,90.50
2018-03-23T09:25:36.511Z,88.50
2018-03-23T09:28:06.669Z,88.40
2018-03-23T09:30:34.150Z,88.30
2018-03-23T09:33:01.640Z,88.20
2018-03-23T09:35:44.293Z,89.50
2018-03-23T09:38:11.773Z,88.70
2018-03-23T09:40:40.309Z,88.30
2018-03-23T09:43:07.822Z,88.50
2018-03-23T09:45:40.240Z,88.90
2018-03-23T09:48:18.609Z,90.00
2018-03-23T09:50:48.821Z,88.30
2018-03-23T09:53:16.965Z,89.00
2018-03-23T09:55:44.475Z,89.10
2018-03-23T09:58:11.969Z,88.50
2018-03-23T10:00:40.251Z,88.00
2018-03-23T10:03:08.543Z,87.70
2018-03-23T10:05:37.498Z,87.60
2018-03-23T10:08:08.447Z,87.30
2018-03-23T10:10:37.523Z,87.60
2018-03-23T10:13:11.563Z,87.90
2018-03-23T10:15:39.125Z,87.80
2018-03-23T10:18:07.698Z,87.20
2018-03-23T10:20:37.077Z,87.00
2018-03-23T10:23:04.924Z,87.00
2018-03-23T10:25:48.518Z,86.70
2018-03-23T10:28:16.829Z,86.90
2018-03-23T10:30:45.947Z,86.60
2018-03-23T10:33:13.474Z,86.80
2018-03-23T10:35:44.551Z,87.00
2018-03-23T10:38:14.602Z,86.90
2018-03-23T10:40:48.783Z,86.00
2018-03-23T10:43:18.237Z,85.90
2018-03-23T10:45:46.861Z,85.80
2018-03-23T10:48:34.496Z,86.60
2018-03-23T10:51:07.546Z,86.30
2018-03-23T10:53:36.040Z,85.50
2018-03-23T10:56:11.628Z,85.70
2018-03-23T10:58:40.371Z,85.20
2018-03-23T11:01:34.553Z,82.00
2018-03-23T11:04:08.424Z,84.00
2018-03-23T11:06:42.316Z,83.90
2018-03-23T11:09:11.617Z,85.00
2018-03-23T11:11:50.683Z,84.90
2018-03-23T11:14:37.604Z,85.60
2018-03-23T11:17:06.104Z,85.50
2018-03-23T11:25:09.758Z,86.90
2018-03-23T11:27:42.159Z,87.50
2018-03-23T11:30:09.705Z,88.20
2018-03-23T11:32:37.909Z,87.60
2018-03-23T11:35:08.838Z,88.00
2018-03-23T11:37:37.799Z,88.50
2018-03-23T11:40:07.678Z,89.00
2018-03-23T11:42:37.978Z,89.10
2018-03-23T11:47:56.595Z,88.80
2018-03-23T11:53:29.413Z,88.90
2018-03-23T11:56:07.116Z,88.80
2018-03-23T11:58:39.015Z,88.20
2018-03-23T12:07:07.095Z,88.50
2018-03-23T12:09:38.033Z,89.20
2018-03-23T12:12:07.894Z,89.30
2018-03-23T12:14:38.532Z,89.20
2018-03-23T12:17:07.412Z,89.70
2018-03-23T12:31:08.530Z,88.80
2018-03-23T12:33:39.669Z,88.20
2018-03-23T12:36:07.173Z,88.20
2018-03-23T12:38:39.373Z,88.10
2018-03-23T12:41:09.346Z,88.10
2018-03-23T12:43:40.237Z,86.80
2018-03-23T12:46:07.837Z,87.50
2018-03-23T12:48:37.152Z,86.00
2018-03-23T12:51:07.573Z,87.10
2018-03-23T12:53:38.421Z,86.30
2018-03-23T12:56:07.396Z,85.30
2018-03-23T12:58:38.569Z,86.10
2018-03-23T13:01:07.382Z,83.40
2018-03-23T13:03:39.274Z,82.70
2018-03-23T13:06:08.808Z,82.70
2018-03-23T13:08:36.371Z,83.20
2018-03-23T13:11:10.019Z,83.30
2018-03-23T13:13:37.672Z,83.80
2018-03-23T13:16:08.884Z,82.20
2018-03-23T13:18:37.420Z,80.70
2018-03-23T13:21:08.492Z,83.70
2018-03-23T13:26:37.491Z,81.30
2018-03-23T13:29:07.473Z,81.30
2018-03-23T13:31:37.828Z,78.60
2018-03-23T13:34:06.143Z,76.70
2018-03-23T13:36:37.475Z,76.60
2018-03-23T13:42:07.958Z,78.80
2018-03-23T13:44:37.229Z,78.20
2018-03-23T13:47:27.370Z,78.80
2018-03-23T13:50:00.934Z,79.80
2018-03-23T13:55:40.476Z,79.80
2018-03-23T13:58:07.986Z,79.80
2018-03-23T14:00:50.472Z,79.60
2018-03-23T14:03:32.392Z,81.00
2018-03-23T14:06:03.850Z,81.50
2018-03-23T14:08:36.672Z,81.90
2018-03-23T14:11:07.007Z,81.20
2018-03-23T14:14:01.537Z,81.10
2018-03-23T14:16:38.719Z,80.80
2018-03-23T14:19:07.997Z,80.80
2018-03-23T14:21:37.282Z,81.10
2018-03-23T14:27:09.897Z,80.30
2018-03-23T14:29:38.173Z,80.60
2018-03-23T14:32:07.498Z,80.60
2018-03-23T14:34:40.127Z,81.60
2018-03-23T14:37:08.394Z,81.50
2018-03-23T14:39:37.738Z,80.90
2018-03-23T14:42:12.217Z,80.90
2018-03-23T14:44:40.499Z,81.10
2018-03-23T14:50:07.650Z,80.20
2018-03-23T14:52:38.907Z,81.20
2018-03-23T14:55:08.524Z,81.20
2018-03-23T14:57:36.886Z,81.30
2018-03-23T15:00:06.849Z,81.90
2018-03-23T15:02:36.579Z,81.90
2018-03-23T15:05:05.973Z,81.60
2018-03-23T15:10:31.246Z,81.00
2018-03-23T15:13:03.843Z,81.10
2018-03-23T15:15:31.344Z,81.90
2018-03-23T15:17:58.859Z,81.00
2018-03-23T15:20:36.685Z,81.10
2018-03-23T15:23:05.773Z,81.30
2018-03-23T15:25:34.149Z,80.30
2018-03-23T15:28:01.649Z,79.60
2018-03-23T15:30:29.145Z,78.60
2018-03-23T15:32:56.701Z,79.40
2018-03-23T15:35:24.300Z,79.00
2018-03-23T15:37:52.616Z,78.60
2018-03-23T15:40:20.113Z,78.10
2018-03-23T15:43:17.366Z,78.40
2018-03-23T15:45:48.024Z,76.20
2018-03-23T15:48:15.548Z,76.20
2018-03-23T15:50:43.172Z,76.00
2018-03-23T15:53:10.678Z,76.10
2018-03-23T15:55:38.190Z,76.80
2018-03-23T15:58:05.680Z,77.30
2018-03-23T16:00:33.936Z,75.50
2018-03-23T16:03:04.634Z,75.60
2018-03-23T16:05:32.096Z,75.80
2018-03-23T16:07:59.566Z,75.20
2018-03-23T16:10:27.938Z,75.40
2018-03-23T16:12:55.458Z,74.30
2018-03-23T16:15:23.729Z,74.90
2018-03-23T16:17:51.238Z,74.90
2018-03-23T16:20:18.754Z,75.30
2018-03-23T16:22:46.241Z,75.10
2018-03-23T16:25:13.765Z,75.00
2018-03-23T16:27:41.253Z,73.70
2018-03-23T16:30:08.752Z,74.20
2018-03-23T16:32:36.254Z,75.20
2018-03-23T16:35:03.784Z,75.40
2018-03-23T16:37:31.266Z,74.10
2018-03-23T16:39:58.749Z,74.20
2018-03-23T16:42:27.007Z,73.70
2018-03-23T16:44:54.473Z,73.70
2018-03-23T16:47:21.969Z,74.40
2018-03-23T16:49:51.303Z,74.90
2018-03-23T16:52:19.608Z,74.90
2018-03-23T16:55:12.664Z,75.60
2018-03-23T16:57:40.181Z,75.70
2018-03-23T17:03:08.212Z,75.70
2018-03-23T17:05:35.706Z,75.70
2018-03-23T17:08:03.969Z,76.30
2018-03-23T17:10:31.538Z,76.30
2018-03-23T17:16:11.065Z,76.30
2018-03-23T17:18:38.586Z,76.60
2018-03-23T17:21:06.105Z,76.70
2018-03-23T17:23:34.368Z,77.20
2018-03-23T17:26:03.850Z,77.20
2018-03-23T17:28:32.192Z,78.00
2018-03-23T17:31:02.747Z,77.70
2018-03-23T17:33:30.257Z,77.60
2018-03-23T17:35:57.814Z,78.10
2018-03-23T17:38:25.334Z,78.30
2018-03-23T17:41:11.417Z,78.20
2018-03-23T17:43:39.031Z,78.30
2018-03-23T17:46:06.713Z,78.60
2018-03-23T17:48:34.961Z,78.60
2018-03-23T17:51:02.466Z,78.80
2018-03-23T17:53:41.102Z,79.00
2018-03-23T17:56:08.595Z,79.20
2018-03-23T17:58:36.412Z,79.20
2018-03-23T18:01:26.691Z,79.40
2018-03-23T18:04:10.702Z,79.30
2018-03-23T18:07:09.562Z,79.10
2018-03-23T18:09:39.867Z,79.50
2018-03-23T18:12:42.387Z,79.40
2018-03-23T18:15:10.840Z,79.30
2018-03-23T18:17:42.227Z,79.30
2018-03-23T18:33:52.949Z,81.10
2018-03-23T18:36:21.193Z,80.60
2018-03-23T18:38:59.630Z,80.60
2018-03-23T18:41:27.213Z,81.00
2018-03-23T18:43:54.726Z,81.00
2018-03-23T18:46:23.616Z,80.60
2018-03-23T18:48:51.164Z,80.80
2018-03-23T18:51:18.669Z,81.50
2018-03-23T18:54:08.158Z,81.70
2018-03-23T18:56:35.712Z,81.60
2018-03-23T18:59:04.113Z,81.70
2018-03-23T19:01:31.648Z,81.70
2018-03-23T19:03:59.160Z,81.80
2018-03-23T19:06:52.320Z,82.40
2018-03-23T19:09:20.588Z,83.00
2018-03-23T19:11:48.096Z,83.00
2018-03-23T19:14:15.769Z,82.70
2018-03-23T19:16:46.789Z,82.60
2018-03-23T19:19:15.039Z,82.60
2018-03-23T19:21:43.900Z,82.50
2018-03-23T19:24:12.197Z,82.30
2018-03-23T19:27:04.287Z,82.30
2018-03-23T19:29:31.842Z,82.30
2018-03-23T19:32:02.960Z,82.60
2018-03-23T19:34:37.349Z,82.70
2018-03-23T19:37:08.511Z,82.70
2018-03-23T19:39:36.949Z,83.70
2018-03-23T19:42:08.978Z,82.90
2018-03-23T19:44:38.375Z,82.60
2018-03-23T19:47:07.127Z,82.60
2018-03-23T19:49:37.486Z,82.40
2018-03-23T19:52:08.671Z,82.40
2018-03-23T19:54:38.352Z,82.70
2018-03-23T19:57:09.007Z,82.60
2018-03-23T19:59:41.643Z,83.00
2018-03-23T20:02:09.273Z,83.00
2018-03-23T20:04:37.748Z,82.80
2018-03-23T20:07:08.910Z,82.70
2018-03-23T20:09:38.291Z,82.80
2018-03-23T20:12:08.938Z,82.80
2018-03-23T20:14:37.345Z,83.50
2018-03-23T20:17:10.001Z,83.40
2018-03-23T20:19:40.007Z,83.40
2018-03-23T20:25:10.894Z,83.40
2018-03-23T20:30:36.339Z,84.20
2018-03-23T20:33:03.897Z,83.40
2018-03-23T20:35:31.390Z,83.40
2018-03-23T21:12:08.226Z,83.30
2018-03-23T21:17:29.186Z,83.50
2018-03-23T21:25:52.778Z,83.50
2018-03-23T21:28:20.359Z,83.70
2018-03-23T21:33:40.121Z,83.90
2018-03-23T21:36:09.641Z,84.00
2018-03-23T21:41:44.634Z,84.20
2018-03-23T21:47:07.624Z,84.30
2018-03-23T21:49:38.918Z,83.90
2018-03-23T21:55:22.490Z,83.70
2018-03-23T21:57:50.040Z,83.70
2018-03-23T22:00:27.749Z,83.70
2018-03-23T22:02:58.788Z,84.00
2018-03-23T22:05:26.343Z,84.30
2018-03-23T22:07:54.599Z,84.20
2018-03-23T22:10:22.094Z,84.00
2018-03-23T22:12:50.360Z,83.60
2018-03-23T22:15:38.172Z,83.60
2018-03-23T22:18:06.783Z,83.50
2018-03-23T22:20:41.798Z,83.50
2018-03-23T22:23:09.318Z,83.60
2018-03-23T22:28:37.082Z,83.00
2018-03-23T22:31:04.666Z,82.50
2018-03-23T22:33:32.184Z,82.00
2018-03-23T22:36:00.931Z,81.70
2018-03-23T22:38:36.465Z,81.70
2018-03-23T22:41:06.006Z,81.90
2018-03-23T22:43:33.643Z,81.80
2018-03-23T22:49:12.065Z,82.10
2018-03-23T22:51:39.566Z,82.00
2018-03-23T22:54:07.472Z,82.80
2018-03-23T22:56:37.585Z,83.00
2018-03-23T23:00:29.522Z,82.20
2018-03-23T23:03:07.873Z,82.40
2018-03-23T23:11:34.952Z,82.50
2018-03-23T23:14:06.498Z,82.40
2018-03-23T23:16:36.294Z,83.10
2018-03-23T23:21:51.382Z,82.40
2018-03-23T23:24:23.223Z,82.20
2018-03-23T23:27:05.415Z,81.80
2018-03-23T23:29:33.026Z,82.00
2018-03-23T23:32:02.936Z,82.20
2018-03-23T23:34:34.392Z,82.40
2018-03-23T23:37:03.447Z,82.70
2018-03-23T23:39:35.307Z,82.60
2018-03-23T23:42:10.949Z,82.50
2018-03-23T23:44:41.679Z,82.20
2018-03-23T23:47:13.268Z,82.20
2018-03-23T23:52:33.453Z,82.50
2018-03-23T23:55:00.953Z,82.40
2018-03-23T23:57:33.962Z,82.20
